Terminal Aerodrome Forecast
Issued by NWS

Home | Current Version | Previous Version | Text Only | Print | Product List | Glossary On
Versions: 1 2 3 4 5 6 7 8 9 10 11 12 13
856
FTUS45 KABQ 211131
TAFROW
TAF
KROW 211131Z 2112/2212 19010KT P6SM SKC
     FM211900 19015G23KT P6SM FEW100
     FM220100 19010KT P6SM SCT100=

USA.gov is the U.S. government's official web portal to all federal, state and local government web resources and services.